Maugansville, MD

11:57 EDT le 20 septembre 2014 (GMT -0400)
Hagerstown Regional-Henson | Change Station
CLOSE
Current Station
Aéroport
Location: Hagerstown,
Altitude: 705 ft
Stations météo à proximité

Alt. 705 ft 39.71 °N, 77.73 °W | Updated 4 minutes ago

Nuageux
Nuageux
72 ° F
Paraît 72 ° F
N
10
Vent Variable Vent de SSE

Aujourd'hui
Haut(e) -- | Bas -- ° F
--% Risque de précip.
Hier
Haut(e) -- | Bas -- ° F
Precip. -- pouce
6:56 AM 7:11 PM
Lune descendante, 12% visible
Pression 30.22 pouce
Visibilité 10.0 Miles terrestres
Nuages Ciel dégagé
Point de rosée 59 ° F
Humidité 64%
Précipitations 0.00 pouce
Profondeur de la couche neigeuse Non disponible.
UV 7 sur 12
Pollen 4.10 sur 12
Qualité de l'air Non disponible.
Flu Activity Non disponible.
METAR KHGR 201553Z 16009KT 10SM CLR 22/15 A3020 RMK AO2 SLP233 T02220150

More Conditions Fewer Conditions

Pression 30.22 pouce
Visibilité 10.0 Miles terrestres
Nuages Ciel dégagé
Point de rosée 59 ° F
Humidité 64%
Précipitations 0.00 pouce
Profondeur de la couche neigeuse Non disponible.
UV 7 sur 12
Pollen 4.10 sur 12
Qualité de l'air Non disponible.
Flu Activity Non disponible.
METAR KHGR 201553Z 16009KT 10SM CLR 22/15 A3020 RMK AO2 SLP233 T02220150

More Conditions Fewer Conditions

10-Day Weather Forecast

Almanac

Astronomie

Sep. 20, 2014 Lever Coucher
Temps réel 06:56 EDT 19:11 EDT
Crépuscule civil 06:29 EDT 19:38 EDT
Crépuscule nautique 05:58 EDT 20:09 EDT
Crépuscule astronomique 05:25 EDT 20:41 EDT
Lune 03:34 EDT 17:13 EDT
Durée de lumière visible 13h 08m
Longueur du jour
12h 14m
Tomorrow will be 2m 35s shorter.
Lune descendante, 12% of the Moon is Illuminated
Aujourd'hui
Lune descendante
Sep 24
Nouveau
Oct 1
Premier quartier
Oct 8
Pleine lune
Oct 15
Dernier quartier

Extrêmes aujourd'hui

State Highs State Lows

Community

WunderPhotos

Upload Photos

1,754,883 Photos téléchargées !

Nearby

Épaisseur de neige

Station Depth Altitude
Pas de nouvelles chutes de neige

Activité sismique

Ville Distance Mag. Time & Date
No recent earthquake activity has been reported nearby.
Minimum magnitude displayed is 2.5.

Températures des eaux côtières

Lieu Température
Aucun rapport de station

Stations météo à proximité